Metar de toute la France(point de départ, Chateauroux, classé dans l'ordre alphabétique actualisée toutes les 30 minutes)






LFBA - Agen/, France
Distance de la station: SSO 307km
Mise à jour: 06/03/2015 03:00
partiellement nuageux
partiellement nuageux
 Wind from SE
Vent: SE 7 km/h
Température: 4°C
Wind Chill: 2°C
Point de Rosée: -2°C
Humidité: 65%
Baromètre: 1037 hPa
Nuages: partiellement nuageux
Visibilité: 10 km
2015/03/06 02:00 LFBA 060200Z AUTO 14004KT 100V180 9999 NSC 04/M02 Q1037
LFLP - Annecy/, France
Distance de la station: ESE 352km
Mise à jour: 06/03/2015 03:00
partiellement nuageux
partiellement nuageux
 Wind from NE
Vent: NE 6 km/h
Température: 2°C
Point de Rosée: -5°C
Humidité: 60%
Baromètre: 1032 hPa
Nuages: partiellement nuageux
Visibilité: 10 km
2015/03/06 02:00 LFLP 060200Z AUTO 05003KT 350V100 9999 NSC 02/M05 Q1032
 
LFOA - Avord/ , France
Distance de la station: ENE 76km
Mise à jour: 06/03/2015 03:00
partiellement nuageux
partiellement nuageux
 Wind from N
Vent: N 2 km/h
Température: 0°C
Point de Rosée: -2°C
Humidité: 87%
Baromètre: 1038 hPa
Nuages: partiellement nuageux
Visibilité: 10 km
2015/03/06 02:00 LFOA 060200Z AUTO 01001KT 9999 NSC M00/M02 Q1038
LFSB - Bale/, France
Distance de la station: ENE 449km
Mise à jour: 06/03/2015 03:00
partiellement nuageux
partiellement nuageux
 Wind from variable
Vent: variable 4 km/h
Température: -2°C
Point de Rosée: -3°C
Humidité: 93%
Baromètre: 1036 hPa
Nuages: partiellement nuageux
Visibilité: 10 km
2015/03/06 02:00 LFSB 060200Z AUTO VRB02KT 9999 NSC M02/M03 Q1036
 
LFOB - Beauvais/, France
Distance de la station: N 296km
Mise à jour: 06/03/2015 03:00
nuageux
nuageux
 Wind from SSE
Vent: SSE 2 km/h
Température: -1°C
Point de Rosée: -2°C
Humidité: 93%
Baromètre: 1038 hPa
Nuages: nuageux
Visibilité: 6 km
Nuages details: nuageux 488 m
2015/03/06 02:00 LFOB 060200Z AUTO 15001KT 6000 BKN016 M01/M02 Q1038
LFBE - Bergerac/, France
Distance de la station: SSO 240km
Mise à jour: 06/03/2015 03:00
partiellement nuageux
partiellement nuageux
 Wind from calm
Vent: Vent calme
Température: -2°C
Point de Rosée: -3°C
Humidité: 93%
Baromètre: 1037 hPa
Nuages: partiellement nuageux
Visibilité: 10 km
2015/03/06 02:00 LFBE 060200Z AUTO 00000KT 9999 NSC M02/M03 Q1037
 
LFMU - Beziers/, France
Distance de la station: SSE 411km
Mise à jour: 06/03/2015 03:00
partiellement nuageux
partiellement nuageux
 Wind from NO
Vent: NO 24 km/h
Température: 8°C
Wind Chill: 4°C
Point de Rosée: -5°C
Humidité: 40%
Baromètre: 1031 hPa
Nuages: partiellement nuageux
Visibilité: 10 km
2015/03/06 02:00 LFMU 060200Z AUTO 32013KT 9999 NSC 08/M05 Q1031
LFBZ - Biarritz/, France
Distance de la station: SO 449km
Mise à jour: 06/03/2015 03:00
partiellement nuageux
partiellement nuageux
 Wind from E
Vent: E 13 km/h
Température: 4°C
Wind Chill: 1°C
Point de Rosée: 1°C
Humidité: 81%
Baromètre: 1036 hPa
Nuages: partiellement nuageux
Visibilité: 10 km
2015/03/06 02:00 LFBZ 060200Z AUTO 09007KT 9999 NSC 04/01 Q1036
 
LFBD - Bordeaux/, France
Distance de la station: SO 289km
Mise à jour: 06/03/2015 03:00
partiellement nuageux
partiellement nuageux
 Wind from ENE
Vent: ENE 7 km/h
Température: 4°C
Wind Chill: 2°C
Point de Rosée: 0°C
Humidité: 75%
Baromètre: 1037 hPa
Nuages: partiellement nuageux
Visibilité: 10 km
2015/03/06 02:00 LFBD 060200Z AUTO 06004KT 9999 NSC 04/00 Q1037
LFAQ - Bray/, France
Distance de la station: N 358km
Mise à jour: 06/03/2015 03:00
partiellement nuageux
partiellement nuageux
 Wind from OSO
Vent: OSO 9 km/h
Température: 1°C
Wind Chill: -2°C
Point de Rosée: 0°C
Humidité: 93%
Baromètre: 1038 hPa
Nuages: partiellement nuageux
Visibilité: 7 km
2015/03/06 02:00 LFAQ 060200Z AUTO 25005KT 7000 NSC 01/00 Q1038
 
LFRB - Brest/, France
Distance de la station: ONO 492km
Mise à jour: 06/03/2015 03:00
clair
clair
 Wind from SSE
Vent: SSE 13 km/h
Température: 4°C
Wind Chill: 1°C
Point de Rosée: 1°C
Humidité: 81%
Baromètre: 1037 hPa
Récapitulatifs: clair
Visibilité: supérieure à 10 km
2015/03/06 02:00 LFRB 060200Z 16007KT CAVOK 04/01 Q1037 NOSIG
LFRK - Caen/, France
Distance de la station: NNO 306km
Mise à jour: 06/03/2015 03:00
partiellement nuageux
partiellement nuageux
 Wind from OSO
Vent: OSO 13 km/h
Température: 1°C
Wind Chill: -3°C
Point de Rosée: 0°C
Humidité: 93%
Baromètre: 1038 hPa
Nuages: partiellement nuageux
Visibilité: 10 km
2015/03/06 02:00 LFRK 060200Z AUTO 24007KT 9999 NSC 01/00 Q1038
 
LFMK - Carcassonne/, France
Distance de la station: S 403km
Mise à jour: 06/03/2015 03:00
partiellement nuageux
partiellement nuageux
 Wind from ONO
Vent: ONO 22 km/h
Température: 6°C
Wind Chill: 2°C
Point de Rosée: -2°C
Humidité: 57%
Baromètre: 1035 hPa
Nuages: partiellement nuageux
Visibilité: 10 km
2015/03/06 02:00 LFMK 060200Z AUTO 29012KT 9999 NSC 06/M02 Q1035
LFMV - Caumont/, France
Distance de la station: SE 410km
Mise à jour: 06/03/2015 03:00
partiellement nuageux
partiellement nuageux
 Wind from N
Vent: N 30 km/h
Température: 6°C
Wind Chill: 2°C
Point de Rosée: -4°C
Humidité: 49%
Baromètre: 1029 hPa
Nuages: partiellement nuageux
Visibilité: 10 km
2015/03/06 02:00 LFMV 060200Z AUTO 35016KT 9999 NSC 06/M04 Q1029
 
LFBC - Cazaux/, France
Distance de la station: SO 336km
Mise à jour: 06/03/2015 03:00
partiellement nuageux
partiellement nuageux
 Wind from variable
Vent: variable 4 km/h
Température: 1°C
Point de Rosée: 0°C
Humidité: 93%
Baromètre: 1037 hPa
Nuages: partiellement nuageux
Visibilité: 10 km
2015/03/06 02:00 LFBC 060200Z AUTO VRB02KT 9999 NSC 01/00 Q1037
LFPC - Creil/, France
Distance de la station: NNE 278km
Mise à jour: 06/03/2015 03:00

 Wind from calm
Vent: Vent calme
Température: -1°C
Point de Rosée: -2°C
Humidité: 93%
Baromètre: 1038 hPa
Visibilité: 10 km
2015/03/06 02:00 LFPC 060200Z AUTO 00000KT 9999 ////// M01/M02 Q1038
 
LFLB - Chambery/, France
Distance de la station: ESE 348km
Mise à jour: 06/03/2015 03:00
partiellement nuageux
partiellement nuageux
 Wind from N
Vent: N 15 km/h
Température: 4°C
Wind Chill: 1°C
Point de Rosée: -4°C
Humidité: 56%
Baromètre: 1033 hPa
Nuages: partiellement nuageux
Visibilité: 10 km
2015/03/06 02:00 LFLB 060200Z AUTO 01008KT 9999 NSC 04/M04 Q1033
LFOK - Chalons/, France
Distance de la station: NE 287km
Mise à jour: 06/03/2015 03:00
partiellement nuageux
partiellement nuageux
 Wind from N
Vent: N 4 km/h
Température: 1°C
Point de Rosée: -1°C
Humidité: 87%
Baromètre: 1037 hPa
Nuages: partiellement nuageux
Visibilité: 10 km
2015/03/06 02:00 LFOK 060200Z AUTO 36002KT 9999 NSC 01/M01 Q1037
 
LFOC - Chateaudun/, France
Distance de la station: N 137km
Mise à jour: 06/03/2015 03:00

 Wind from N
Vent: N 6 km/h
Température: 0°C
Point de Rosée: -1°C
Humidité: 93%
Baromètre: 1038 hPa
Visibilité: 10 km
2015/03/06 02:00 LFOC 060200Z AUTO 35003KT 9999 ////// 00/M01 Q1038
LFLX - Chateauroux/, France
Distance de la station: NE 4km
Mise à jour: 06/03/2015 03:00
partiellement nuageux
partiellement nuageux
 Wind from calm
Vent: Vent calme
Température: -1°C
Point de Rosée: -2°C
Humidité: 93%
Baromètre: 1038 hPa
Nuages: partiellement nuageux
Visibilité: 10 km
2015/03/06 02:00 LFLX 060200Z AUTO 00000KT 9999 NSC M01/M02 Q1038
 
LFPG - Charles De Gaulle/, France
Distance de la station: NNE 252km
Mise à jour: 06/03/2015 03:00
clair
clair
 Wind from NNO
Vent: NNO 6 km/h
Température: 2°C
Point de Rosée: 0°C
Humidité: 87%
Baromètre: 1038 hPa
Récapitulatifs: clair
Visibilité: supérieure à 10 km
2015/03/06 02:00 LFPG 060200Z 34003KT CAVOK 02/M00 Q1038 NOSIG
LFRC - Cherbourg/, France
Distance de la station: NO 390km
Mise à jour: 06/03/2015 03:00
partiellement nuageux
partiellement nuageux
 Wind from SO
Vent: SO 11 km/h
Température: 3°C
Wind Chill: 0°C
Point de Rosée: 3°C
Humidité: 100%
Baromètre: 1038 hPa
Nuages: partiellement nuageux
Visibilité: 10 km
2015/03/06 02:00 LFRC 060200Z AUTO 23006KT 9999 NSC 03/03 Q1038
 
LFLC - Clermont/, France
Distance de la station: SE 163km
Mise à jour: 06/03/2015 03:00
partiellement nuageux
partiellement nuageux
 Wind from calm
Vent: Vent calme
Température: 1°C
Point de Rosée: -3°C
Humidité: 75%
Baromètre: 1037 hPa
Nuages: partiellement nuageux
Visibilité: 10 km
2015/03/06 02:00 LFLC 060200Z AUTO 00000KT 9999 NSC 01/M03 Q1037
LFBG - Cognac/, France
Distance de la station: SO 200km
Mise à jour: 06/03/2015 03:00
partiellement nuageux
partiellement nuageux
 Wind from NE
Vent: NE 7 km/h
Température: 2°C
Wind Chill: 0°C
Point de Rosée: 0°C
Humidité: 87%
Baromètre: 1038 hPa
Nuages: partiellement nuageux
Visibilité: 10 km
2015/03/06 02:00 LFBG 060200Z AUTO 04004KT 9999 NSC 02/M00 Q1038
 
LFBY - Dax/, France
Distance de la station: SSO 411km
Mise à jour: 06/03/2015 03:00

 Wind from NE
Vent: NE 7 km/h
Température: 4°C
Wind Chill: 2°C
Point de Rosée: 1°C
Humidité: 81%
Baromètre: 1036 hPa
Visibilité: 10 km
2015/03/06 02:00 LFBY 060200Z AUTO 04004KT 9999 // ////// 04/01 Q1036
LFSD - Dijon/, France
Distance de la station: ENE 261km
Mise à jour: 06/03/2015 03:00
partiellement nuageux
partiellement nuageux
 Wind from N
Vent: N 13 km/h
Température: 2°C
Wind Chill: -1°C
Point de Rosée: -2°C
Humidité: 75%
Baromètre: 1037 hPa
Nuages: partiellement nuageux
Visibilité: 10 km
2015/03/06 02:00 LFSD 060200Z AUTO 35007KT 9999 NSC 02/M02 Q1037
 
LFRD - Dinard/, France
Distance de la station: NO 342km
Mise à jour: 06/03/2015 03:00
Broulliard, partiellement nuageux
Broulliard, partiellement nuageux
 Wind from S
Vent: S 9 km/h
Température: 3°C
Wind Chill: 0°C
Point de Rosée: 3°C
Humidité: 100%
Baromètre: 1038 hPa
Récapitulatifs: Broulliard
Nuages: partiellement nuageux
Visibilité: 4 km
2015/03/06 02:00 LFRD 060200Z AUTO 17005KT 3500 BR NSC 03/03 Q1038
LFGJ - Dole/, France
Distance de la station: E 286km
Mise à jour: 06/03/2015 03:00
partiellement nuageux
partiellement nuageux
 Wind from NNE
Vent: NNE 6 km/h
Température: 0°C
Point de Rosée: -3°C
Humidité: 80%
Baromètre: 1036 hPa
Nuages: partiellement nuageux
Visibilité: 10 km
2015/03/06 02:00 LFGJ 060200Z AUTO 03003KT 9999 NSC M00/M03 Q1036
 
LFOE - Evreux/, France
Distance de la station: N 247km
Mise à jour: 06/03/2015 03:00
partiellement nuageux
partiellement nuageux
 Wind from SO
Vent: SO 7 km/h
Température: -1°C
Wind Chill: -4°C
Point de Rosée: -2°C
Humidité: 93%
Baromètre: 1038 hPa
Nuages: partiellement nuageux
Visibilité: 10 km
2015/03/06 02:00 LFOE 060200Z AUTO 23004KT 9999 NSC M01/M02 Q1038
LFMT - Frejorgues/, France
Distance de la station: SSE 403km
Mise à jour: 06/03/2015 03:00
partiellement nuageux
partiellement nuageux
 Wind from O
Vent: O 7 km/h
Température: 6°C
Wind Chill: 4°C
Point de Rosée: -5°C
Humidité: 46%
Baromètre: 1030 hPa
Nuages: partiellement nuageux
Visibilité: 10 km
2015/03/06 02:00 LFMT 060200Z AUTO 26004KT 230V330 9999 NSC 06/M05 Q1030
 
LFMI - Istres/, France
Distance de la station: SE 446km
Mise à jour: 06/03/2015 03:00
partiellement nuageux
partiellement nuageux
 Wind from N
Vent: N 26 km/h
Température: 6°C
Wind Chill: 2°C
Point de Rosée: -4°C
Humidité: 49%
Baromètre: 1028 hPa
Nuages: partiellement nuageux
Visibilité: 10 km
2015/03/06 02:00 LFMI 060200Z AUTO 01014KT 9999 NSC 06/M04 Q1028
LFLS - Grenoble/, France
Distance de la station: ESE 323km
Mise à jour: 06/03/2015 03:00
partiellement nuageux
partiellement nuageux
 Wind from NNE
Vent: NNE 9 km/h
Température: 1°C
Wind Chill: -2°C
Point de Rosée: -3°C
Humidité: 75%
Baromètre: 1033 hPa
Nuages: partiellement nuageux
Visibilité: 10 km
2015/03/06 02:00 LFLS 060200Z AUTO 02005KT 350V070 9999 NSC 01/M03 Q1033
 
LFBH - La Rochelle/, France
Distance de la station: OSO 229km
Mise à jour: 06/03/2015 03:00
partiellement nuageux
partiellement nuageux
 Wind from ENE
Vent: ENE 11 km/h
Température: 3°C
Wind Chill: 0°C
Point de Rosée: 0°C
Humidité: 81%
Baromètre: 1038 hPa
Nuages: partiellement nuageux
Visibilité: 10 km
2015/03/06 02:00 LFBH 060200Z AUTO 07006KT 9999 NSC 03/00 Q1038
LFRI - La Roche Sur Yon/, France
Distance de la station: O 233km
Mise à jour: 06/03/2015 03:00
partiellement nuageux
partiellement nuageux
 Wind from NNE
Vent: NNE 6 km/h
Température: 1°C
Point de Rosée: 1°C
Humidité: 100%
Baromètre: 1038 hPa
Nuages: partiellement nuageux
Visibilité: 10 km
2015/03/06 02:00 LFRI 060200Z AUTO 03003KT 9999 NSC 01/01 Q1038
 
LFOH - Le Havre/, France
Distance de la station: NNO 323km
Mise à jour: 06/03/2015 03:00
partiellement nuageux
partiellement nuageux
 Wind from SSO
Vent: SSO 7 km/h
Température: 4°C
Wind Chill: 2°C
Point de Rosée: 2°C
Humidité: 87%
Baromètre: 1038 hPa
Nuages: partiellement nuageux
Visibilité: 10 km
2015/03/06 02:00 LFOH 060200Z AUTO 21004KT 9999 NSC 04/02 Q1038
LFRM - Le Mans/, France
Distance de la station: NO 166km
Mise à jour: 06/03/2015 03:00
partiellement nuageux
partiellement nuageux
 Wind from ESE
Vent: ESE 4 km/h
Température: -1°C
Point de Rosée: -2°C
Humidité: 93%
Baromètre: 1039 hPa
Nuages: partiellement nuageux
Visibilité: 8 km
2015/03/06 02:00 LFRM 060200Z AUTO 11002KT 8000 NSC M01/M02 Q1039
 
LFRJ - Landivisiau/, France
Distance de la station: ONO 476km
Mise à jour: 06/03/2015 03:00
partiellement nuageux
partiellement nuageux
 Wind from S
Vent: S 13 km/h
Température: 3°C
Wind Chill: -1°C
Point de Rosée: 0°C
Humidité: 81%
Baromètre: 1037 hPa
Nuages: partiellement nuageux
Visibilité: 10 km
2015/03/06 02:00 LFRJ 060200Z AUTO 17007KT 9999 NSC 03/00 Q1037
LFRO - Lannion/, France
Distance de la station: ONO 441km
Mise à jour: 06/03/2015 03:00
partiellement nuageux
partiellement nuageux
 Wind from S
Vent: S 7 km/h
Température: 1°C
Wind Chill: -2°C
Point de Rosée: 0°C
Humidité: 93%
Baromètre: 1038 hPa
Nuages: partiellement nuageux
Visibilité: 10 km
2015/03/06 02:00 LFRO 060200Z AUTO 17004KT 9999 NSC 01/00 Q1038
 
LFRL - Lanveoc/, France
Distance de la station: ONO 485km
Mise à jour: 06/03/2015 03:00
partiellement nuageux
partiellement nuageux
 Wind from SSE
Vent: SSE 13 km/h
Température: 4°C
Wind Chill: 1°C
Point de Rosée: 1°C
Humidité: 81%
Baromètre: 1038 hPa
Nuages: partiellement nuageux
Visibilité: 10 km
2015/03/06 02:00 LFRL 060200Z AUTO 15007KT 9999 NSC 04/01 Q1038
LFBL - Limoges/, France
Distance de la station: SSO 113km
Mise à jour: 06/03/2015 03:00
partiellement nuageux
partiellement nuageux
 Wind from NE
Vent: NE 9 km/h
Température: 3°C
Wind Chill: 0°C
Point de Rosée: -2°C
Humidité: 70%
Baromètre: 1036 hPa
Nuages: partiellement nuageux
Visibilité: 10 km
2015/03/06 02:00 LFBL 060200Z AUTO 04005KT 9999 NSC 03/M02 Q1036
 
LFQQ - Lille/, France
Distance de la station: NNE 430km
Mise à jour: 06/03/2015 03:00

 Wind from S
Vent: S 2 km/h
Visibilité: 7 km
2015/03/06 02:00 LFQQ 060200Z AUTO 17001KT 7000 2400 NSC 02/02 Q1037
LFRH - Lorient/, France
Distance de la station: ONO 401km
Mise à jour: 06/03/2015 03:00
partiellement nuageux
partiellement nuageux
 Wind from E
Vent: E 6 km/h
Température: 2°C
Point de Rosée: 0°C
Humidité: 87%
Baromètre: 1038 hPa
Nuages: partiellement nuageux
Visibilité: 10 km
2015/03/06 02:00 LFRH 060200Z AUTO 09003KT 9999 NSC 02/M00 Q1038
 
LFLY - Lyon/, France
Distance de la station: ESE 279km
Mise à jour: 06/03/2015 03:00
partiellement nuageux
partiellement nuageux
 Wind from N
Vent: N 24 km/h
Température: 4°C
Wind Chill: -1°C
Point de Rosée: -3°C
Humidité: 61%
Baromètre: 1034 hPa
Nuages: partiellement nuageux
Visibilité: 10 km
2015/03/06 02:00 LFLY 060200Z AUTO 35013KT 9999 NSC 04/M03 Q1034
LFLL - Lyon/Satolas, France
Distance de la station: ESE 287km
Mise à jour: 06/03/2015 03:00
clair
clair
 Wind from NNO
Vent: NNO 22 km/h
Température: 3°C
Wind Chill: -2°C
Point de Rosée: -3°C
Humidité: 65%
Baromètre: 1034 hPa
Récapitulatifs: clair
Visibilité: supérieure à 10 km
2015/03/06 02:00 LFLL 060200Z 34012KT CAVOK 03/M03 Q1034 NOSIG
 
LFSX - Luxeuil/, France
Distance de la station: ENE 366km
Mise à jour: 06/03/2015 03:00
partiellement nuageux
partiellement nuageux
 Wind from calm
Vent: Vent calme
Température: -4°C
Point de Rosée: -5°C
Humidité: 93%
Baromètre: 1036 hPa
Nuages: partiellement nuageux
Visibilité: 10 km
2015/03/06 02:00 LFSX 060200Z AUTO 00000KT 9999 NSC M04/M05 Q1036
LFJR - Marce/, France
Distance de la station: NO 134km
Mise à jour: 06/03/2015 03:00
partiellement nuageux
partiellement nuageux
 Wind from ENE
Vent: ENE 6 km/h
Température: 2°C
Point de Rosée: 0°C
Humidité: 87%
Baromètre: 1039 hPa
Nuages: partiellement nuageux
Visibilité: 10 km
2015/03/06 02:00 LFJR 060200Z AUTO 06003KT 9999 NSC 02/M00 Q1039
 
LFML - Marseille/, France
Distance de la station: SE 466km
Mise à jour: 06/03/2015 03:00
partiellement nuageux
partiellement nuageux
 Wind from variable
Vent: variable 6 km/h
Température: 3°C
Point de Rosée: -4°C
Humidité: 60%
Baromètre: 1028 hPa
Nuages: partiellement nuageux
Visibilité: 10 km
2015/03/06 02:00 LFML 060200Z AUTO VRB03KT 9999 NSC 03/M04 Q1028
LFPM - Melun/, France
Distance de la station: NNE 213km
Mise à jour: 06/03/2015 03:00
partiellement nuageux
partiellement nuageux
 Wind from NO
Vent: NO 4 km/h
Température: 1°C
Point de Rosée: -1°C
Humidité: 87%
Baromètre: 1038 hPa
Nuages: partiellement nuageux
Visibilité: 10 km
2015/03/06 02:00 LFPM 060200Z AUTO 31002KT 9999 NSC 01/M01 Q1038
 
LFJL - Metz-Nancy-Lorra/, France
Distance de la station: NE 416km
Mise à jour: 06/03/2015 03:00
partiellement nuageux
partiellement nuageux
 Wind from calm
Vent: Vent calme
Température: -2°C
Point de Rosée: -4°C
Humidité: 86%
Baromètre: 1037 hPa
Nuages: partiellement nuageux
Visibilité: 10 km
2015/03/06 02:00 LFJL 060200Z AUTO 00000KT 9999 NSC M02/M04 Q1037
LFBM - Mont-De-Marsan/, France
Distance de la station: SSO 365km
Mise à jour: 06/03/2015 03:00
partiellement nuageux
partiellement nuageux
 Wind from NE
Vent: NE 6 km/h
Température: -1°C
Point de Rosée: -3°C
Humidité: 86%
Baromètre: 1037 hPa
Nuages: partiellement nuageux
Visibilité: 10 km
2015/03/06 02:00 LFBM 060200Z AUTO 05003KT 9999 NSC M01/M03 Q1037
 
LFSO - Nancy/, France
Distance de la station: ENE 375km
Mise à jour: 06/03/2015 03:00
partiellement nuageux
partiellement nuageux
 Wind from N
Vent: N 2 km/h
Température: 0°C
Point de Rosée: -2°C
Humidité: 87%
Baromètre: 1036 hPa
Nuages: partiellement nuageux
Visibilité: 10 km
2015/03/06 02:00 LFSO 060200Z AUTO 36001KT 9999 NSC M00/M02 Q1036
LFRS - Nantes/, France
Distance de la station: O 252km
Mise à jour: 06/03/2015 03:00
partiellement nuageux
partiellement nuageux
 Wind from calm
Vent: Vent calme
Température: 2°C
Point de Rosée: 1°C
Humidité: 93%
Baromètre: 1039 hPa
Nuages: partiellement nuageux
Visibilité: 10 km
2015/03/06 02:00 LFRS 060200Z AUTO 00000KT 9999 NSC 02/01 Q1039
 
LFTW - Nimes/, France
Distance de la station: SE 402km
Mise à jour: 06/03/2015 03:00
partiellement nuageux
partiellement nuageux
 Wind from NNE
Vent: NNE 28 km/h
Température: 7°C
Wind Chill: 3°C
Point de Rosée: -5°C
Humidité: 42%
Baromètre: 1029 hPa
Nuages: partiellement nuageux
Visibilité: 10 km
2015/03/06 02:00 LFTW 060200Z AUTO 02015KT 340V040 9999 NSC 07/M05 Q1029
LFMO - Orange/, France
Distance de la station: SE 387km
Mise à jour: 06/03/2015 03:00
partiellement nuageux
partiellement nuageux
 Wind from N
Vent: N 44 km/h
Température: 6°C
Wind Chill: 1°C
Point de Rosée: -3°C
Humidité: 53%
Baromètre: 1029 hPa
Nuages: partiellement nuageux
Visibilité: 10 km
2015/03/06 02:00 LFMO 060200Z AUTO 36024KT 9999 NSC 06/M03 Q1029
 
LFOJ - Orleans/, France
Distance de la station: N 128km
Mise à jour: 06/03/2015 03:00
Broulliard, partiellement nuageux
Broulliard, partiellement nuageux
 Wind from N
Vent: N 4 km/h
Température: -1°C
Point de Rosée: -2°C
Humidité: 93%
Baromètre: 1038 hPa
Récapitulatifs: Broulliard
Nuages: partiellement nuageux
Visibilité: 5 km
2015/03/06 02:00 LFOJ 060200Z AUTO 36002KT 5000 BR NSC M01/M02 Q1038
LFPB - Paris/, France
Distance de la station: NNE 246km
Mise à jour: 06/03/2015 03:00
partiellement nuageux
partiellement nuageux
 Wind from variable
Vent: variable 4 km/h
Température: 0°C
Point de Rosée: -1°C
Humidité: 93%
Baromètre: 1039 hPa
Nuages: partiellement nuageux
Visibilité: 10 km
2015/03/06 02:00 LFPB 060200Z AUTO VRB02KT 9999 NSC M00/M01 Q1039
 
LFPO - Paris/Orly/, France
Distance de la station: NNE 218km
Mise à jour: 06/03/2015 03:00
clair
clair
 Wind from O
Vent: O 4 km/h
Température: 0°C
Point de Rosée: -2°C
Humidité: 87%
Baromètre: 1038 hPa
Récapitulatifs: clair
Visibilité: supérieure à 10 km
2015/03/06 02:00 LFPO 060200Z 27002KT CAVOK M00/M02 Q1038 NOSIG
LFMP - Perpignan/, France
Distance de la station: SSE 465km
Mise à jour: 06/03/2015 03:00
partiellement nuageux
partiellement nuageux
 Wind from NO
Vent: NO 33 km/h, Rafale: 54 km/h
Température: 9°C
Wind Chill: 5°C
Point de Rosée: -3°C
Humidité: 43%
Baromètre: 1031 hPa
Nuages: partiellement nuageux
Visibilité: 10 km
2015/03/06 02:00 LFMP 060200Z AUTO 31018G29KT 9999 NSC 09/M03 Q1031
 
LFBI - Poitiers/, France
Distance de la station: OSO 108km
Mise à jour: 06/03/2015 03:00
partiellement nuageux
partiellement nuageux
 Wind from ONO
Vent: ONO 6 km/h
Température: 1°C
Point de Rosée: -2°C
Humidité: 81%
Baromètre: 1038 hPa
Nuages: partiellement nuageux
Visibilité: 10 km
2015/03/06 02:00 LFBI 060200Z AUTO 30003KT 9999 NSC 01/M02 Q1038
LFRQ - Quimper/, France
Distance de la station: ONO 458km
Mise à jour: 06/03/2015 03:00
partiellement nuageux
partiellement nuageux
 Wind from E
Vent: E 6 km/h
Température: 2°C
Point de Rosée: 0°C
Humidité: 87%
Baromètre: 1038 hPa
Nuages: partiellement nuageux
Visibilité: 10 km
2015/03/06 02:00 LFRQ 060200Z AUTO 09003KT 9999 NSC 02/M00 Q1038
 
LFRN - Rennes/, France
Distance de la station: ONO 291km
Mise à jour: 06/03/2015 03:00
partiellement nuageux
partiellement nuageux
 Wind from S
Vent: S 4 km/h
Température: 0°C
Point de Rosée: -1°C
Humidité: 93%
Baromètre: 1039 hPa
Nuages: partiellement nuageux
Visibilité: 7 km
2015/03/06 02:00 LFRN 060200Z AUTO 19002KT 7000 NSC 00/M01 Q1039
LFCR - Rodez/, France
Distance de la station: SSE 277km
Mise à jour: 06/03/2015 03:00
partiellement nuageux
partiellement nuageux
 Wind from variable
Vent: variable 4 km/h
Température: -2°C
Point de Rosée: -4°C
Humidité: 86%
Baromètre: 1034 hPa
Nuages: partiellement nuageux
Visibilité: 10 km
2015/03/06 02:00 LFCR 060200Z AUTO VRB02KT 9999 NSC M02/M04 Q1034
 
LFYR - Romorantin/, France
Distance de la station: N 56km
Mise à jour: 06/03/2015 03:00
Broulliard, partiellement nuageux
Broulliard, partiellement nuageux
 Wind from calm
Vent: Vent calme
Température: -3°C
Point de Rosée: -3°C
Humidité: 100%
Baromètre: 1038 hPa
Récapitulatifs: Broulliard
Nuages: partiellement nuageux
Visibilité: 4 km
2015/03/06 02:00 LFYR 060200Z AUTO 00000KT 3800 BR NSC M03/M03 Q1038
LFOP - Rouen/, France
Distance de la station: N 286km
Mise à jour: 06/03/2015 03:00
partiellement nuageux
partiellement nuageux
 Wind from SSO
Vent: SSO 6 km/h
Température: 0°C
Point de Rosée: 0°C
Humidité: 100%
Baromètre: 1038 hPa
Nuages: partiellement nuageux
Visibilité: 8 km
2015/03/06 02:00 LFOP 060200Z AUTO 20003KT 8000 NSC 00/M00 Q1038
 
LFMY - Salon/, France
Distance de la station: SE 446km
Mise à jour: 06/03/2015 03:00
partiellement nuageux
partiellement nuageux
 Wind from NNE
Vent: NNE 15 km/h
Température: 6°C
Wind Chill: 3°C
Point de Rosée: -5°C
Humidité: 46%
Baromètre: 1028 hPa
Nuages: partiellement nuageux
Visibilité: 10 km
2015/03/06 02:00 LFMY 060200Z AUTO 02008KT 350V060 9999 NSC 06/M05 Q1028
LFST - Strasbourg/, France
Distance de la station: ENE 483km
Mise à jour: 06/03/2015 03:00
partiellement nuageux
partiellement nuageux
 Wind from variable
Vent: variable 2 km/h
Température: -2°C
Point de Rosée: -3°C
Humidité: 93%
Baromètre: 1037 hPa
Nuages: partiellement nuageux
Visibilité: 10 km
2015/03/06 02:00 LFST 060200Z AUTO VRB01KT 9999 NSC M02/M03 Q1037
 
LFRT - Saint-Brieuc/, France
Distance de la station: ONO 388km
Mise à jour: 05/03/2015 23:00
Pas à jour
partiellement nuageux
partiellement nuageux
 Wind from S
Vent: S 4 km/h
Température: 4°C
Point de Rosée: 2°C
Humidité: 87%
Baromètre: 1039 hPa
Nuages: partiellement nuageux
Visibilité: 10 km
2015/03/05 22:00 LFRT 052200Z AUTO 17002KT 9999 NSC 04/02 Q1039
LFSI - St. Dizier/, France
Distance de la station: NE 313km
Mise à jour: 06/03/2015 03:00
partiellement nuageux
partiellement nuageux
 Wind from ESE
Vent: ESE 4 km/h
Température: -2°C
Point de Rosée: -2°C
Humidité: 100%
Baromètre: 1037 hPa
Nuages: partiellement nuageux
Visibilité: 8 km
2015/03/06 02:00 LFSI 060200Z AUTO 11002KT 8000 NSC M02/M02 Q1037
 
LFMH - St Etienne/, France
Distance de la station: SE 247km
Mise à jour: 06/03/2015 03:00
partiellement nuageux
partiellement nuageux
 Wind from variable
Vent: variable 6 km/h
Température: 1°C
Point de Rosée: -2°C
Humidité: 81%
Baromètre: 1035 hPa
Nuages: partiellement nuageux
Visibilité: 10 km
2015/03/06 02:00 LFMH 060200Z AUTO VRB03KT 9999 NSC 01/M02 Q1035
LFRG - St Gatien/, France
Distance de la station: NNO 305km
Mise à jour: 06/03/2015 03:00
partiellement nuageux
partiellement nuageux
 Wind from OSO
Vent: OSO 9 km/h
Température: 1°C
Wind Chill: -2°C
Point de Rosée: 0°C
Humidité: 93%
Baromètre: 1038 hPa
Nuages: partiellement nuageux
Visibilité: 10 km
2015/03/06 02:00 LFRG 060200Z AUTO 25005KT 9999 NSC 01/M00 Q1038
 
LFRZ - St. Nazaire/, France
Distance de la station: ONO 297km
Mise à jour: 06/03/2015 03:00
partiellement nuageux
partiellement nuageux
 Wind from NNE
Vent: NNE 6 km/h
Température: 3°C
Point de Rosée: 1°C
Humidité: 87%
Baromètre: 1039 hPa
Nuages: partiellement nuageux
Visibilité: 10 km
2015/03/06 02:00 LFRZ 060200Z AUTO 03003KT 9999 NSC 03/01 Q1039
LFLN - Saint Yan/, France
Distance de la station: ESE 184km
Mise à jour: 06/03/2015 03:00
partiellement nuageux
partiellement nuageux
 Wind from NO
Vent: NO 2 km/h
Température: 0°C
Point de Rosée: -2°C
Humidité: 87%
Baromètre: 1037 hPa
Nuages: partiellement nuageux
Visibilité: 10 km
2015/03/06 02:00 LFLN 060200Z AUTO 31001KT 9999 NSC M00/M02 Q1037
 
LFBT - Tarbes/, France
Distance de la station: SSO 427km
Mise à jour: 06/03/2015 03:00
partiellement nuageux
partiellement nuageux
 Wind from calm
Vent: Vent calme
Température: -1°C
Point de Rosée: -2°C
Humidité: 93%
Baromètre: 1036 hPa
Nuages: partiellement nuageux
Visibilité: 10 km
2015/03/06 02:00 LFBT 060200Z AUTO 00000KT 9999 NSC M01/M02 Q1036
LFSL - Toul/, France
Distance de la station: NE 356km
Mise à jour: 06/03/2015 03:00
partiellement nuageux
partiellement nuageux
 Wind from calm
Vent: Vent calme
Température: -2°C
Point de Rosée: -3°C
Humidité: 93%
Baromètre: 1036 hPa
Nuages: partiellement nuageux
Visibilité: 10 km
2015/03/06 02:00 LFSL 060200Z AUTO 00000KT 9999 NSC M02/M03 Q1036
 
LFBO - Toulouse/, France
Distance de la station: S 357km
Mise à jour: 06/03/2015 03:00
partiellement nuageux
partiellement nuageux
 Wind from ONO
Vent: ONO 9 km/h
Température: 4°C
Wind Chill: 2°C
Point de Rosée: -2°C
Humidité: 65%
Baromètre: 1036 hPa
Nuages: partiellement nuageux
Visibilité: 10 km
2015/03/06 02:00 LFBO 060200Z AUTO 29005KT 9999 NSC 04/M02 Q1036
LFOT - Tours/, France
Distance de la station: NO 100km
Mise à jour: 06/03/2015 03:00
partiellement nuageux
partiellement nuageux
 Wind from NE
Vent: NE 9 km/h
Température: 3°C
Wind Chill: 0°C
Point de Rosée: 0°C
Humidité: 81%
Baromètre: 1038 hPa
Nuages: partiellement nuageux
Visibilité: 10 km
2015/03/06 02:00 LFOT 060200Z AUTO 05005KT 9999 NSC 03/M00 Q1038
 
LFPN - Toussus Le Noble/, France
Distance de la station: N 217km
Mise à jour: 06/03/2015 03:00
partiellement nuageux
partiellement nuageux
 Wind from NO
Vent: NO 2 km/h
Température: 0°C
Point de Rosée: -2°C
Humidité: 87%
Baromètre: 1038 hPa
Nuages: partiellement nuageux
Visibilité: 10 km
2015/03/06 02:00 LFPN 060200Z AUTO 32001KT 9999 NSC M00/M02 Q1038
LFPV - Villacoublay/, France
Distance de la station: N 220km
Mise à jour: 06/03/2015 03:00
partiellement nuageux
partiellement nuageux
 Wind from calm
Vent: Vent calme
Température: 2°C
Point de Rosée: -1°C
Humidité: 81%
Baromètre: 1038 hPa
Nuages: partiellement nuageux
Visibilité: 10 km
2015/03/06 02:00 LFPV 060200Z AUTO 00000KT 9999 NSC 02/M01 Q1038